Time;durP1;ratioP1;P1;durP2;ratioP2;P2;SDS_P1;SDS_P2;PMS_P1;PMS_P2;Temp;Humidity;BMP_temperature;BMP_pressure;BME280_temperature;BME280_humidity;BME280_pressure;Samples;Min_cycle;Max_cycle;Signal;HPM_P1;HPM_P2
2022/09/20 00:01:58;;;;;;;2.25;1.40;;;;;;;22.16;49.49;100264.13;20689007;28;20428;-73
2022/09/20 00:11:58;;;;;;;1.33;1.23;;;;;;;22.15;49.50;100262.47;20694023;28;20041;-73
2022/09/20 00:21:59;;;;;;;1.88;1.30;;;;;;;22.14;49.30;100251.09;20707915;28;21631;-73
2022/09/20 00:31:59;;;;;;;1.50;1.35;;;;;;;22.12;49.53;100253.00;20702126;28;20091;-73
2022/09/20 00:41:59;;;;;;;1.27;1.17;;;;;;;22.10;49.31;100254.09;20690722;28;20034;-73
2022/09/20 00:52:01;;;;;;;1.15;1.05;;;;;;;22.09;49.63;100250.63;20688096;28;20046;-74
2022/09/20 01:02:08;;;;;;;1.60;1.20;;;;;;;22.04;49.58;100251.00;20697207;28;20045;-74
2022/09/20 01:12:13;;;;;;;1.20;1.10;;;;;;;22.04;49.45;100244.91;20692716;28;20058;-73
2022/09/20 01:22:56;;;;;;;1.40;1.20;;;;;;;22.04;49.36;100231.72;20690166;28;20069;-74
2022/09/20 01:33:28;;;;;;;1.02;0.93;;;;;;;22.03;49.59;100222.97;20685241;28;20111;-74
2022/09/20 01:43:37;;;;;;;2.25;1.10;;;;;;;22.01;49.73;100227.53;20696054;28;20048;-73
2022/09/20 01:54:04;;;;;;;0.85;0.85;;;;;;;21.99;49.62;100234.72;20689236;28;20074;-73
2022/09/20 02:04:24;;;;;;;1.35;0.93;;;;;;;22.00;49.28;100225.03;20673076;28;20042;-73
2022/09/20 02:14:45;;;;;;;0.80;0.80;;;;;;;21.98;49.53;100235.69;20690002;28;20056;-73
2022/09/20 02:24:45;;;;;;;1.27;0.88;;;;;;;21.97;49.55;100249.88;20693667;28;20602;-73
2022/09/20 02:34:58;;;;;;;0.93;0.82;;;;;;;21.97;49.67;100246.38;20686921;28;20034;-72
2022/09/20 02:45:03;;;;;;;0.80;0.70;;;;;;;21.94;49.49;100255.38;20696580;28;20038;-74
2022/09/20 02:55:16;;;;;;;1.00;0.90;;;;;;;21.94;49.51;100263.28;20688821;28;20045;-74
2022/09/20 03:05:28;;;;;;;0.95;0.85;;;;;;;21.91;49.77;100268.81;20687655;28;20054;-73
2022/09/20 03:15:38;;;;;;;0.73;0.65;;;;;;;21.90;49.79;100275.06;20687696;28;20512;-73
2022/09/20 03:26:04;;;;;;;0.95;0.90;;;;;;;21.89;49.76;100276.00;20700543;28;20081;-73
2022/09/20 03:36:22;;;;;;;1.00;0.90;;;;;;;21.88;49.71;100288.34;20695271;28;20060;-73
2022/09/20 03:46:50;;;;;;;0.70;0.70;;;;;;;21.86;49.99;100294.69;20688425;28;20085;-72
2022/09/20 03:57:21;;;;;;;1.15;0.70;;;;;;;21.85;49.98;100293.03;20681024;28;20073;-73
2022/09/20 04:07:54;;;;;;;0.73;0.73;;;;;;;21.86;49.84;100302.63;20681023;28;20050;-73
2022/09/20 04:17:57;;;;;;;9.93;1.35;;;;;;;21.94;50.09;100307.28;20663848;28;20054;-73
2022/09/20 04:28:10;;;;;;;1.75;0.70;;;;;;;21.95;50.51;100303.66;20666681;28;20056;-81
2022/09/20 04:38:17;;;;;;;9.50;1.25;;;;;;;21.97;50.76;100307.00;20650434;28;20049;-75
2022/09/20 04:48:34;;;;;;;25.38;3.65;;;;;;;21.97;51.10;100294.69;20647643;28;20038;-78
2022/09/20 04:58:59;;;;;;;26.45;4.82;;;;;;;21.98;51.24;100295.50;20659097;28;20050;-77
2022/09/20 05:09:21;;;;;;;8.00;2.08;;;;;;;21.23;44.56;100313.75;20650812;28;20050;-78
2022/09/20 05:19:44;;;;;;;;;;;;;;;21.47;45.67;100316.25;20626146;28;20423;-78
2022/09/20 05:29:48;;;;;;;6.53;2.10;;;;;;;21.60;48.00;100321.38;20678909;28;19924;-77
2022/09/20 05:39:53;;;;;;;8.82;2.00;;;;;;;21.70;49.06;100330.22;20654270;28;20073;-77
2022/09/20 05:50:19;;;;;;;8.07;1.60;;;;;;;21.72;48.92;100344.09;20653513;28;20053;-77
2022/09/20 06:00:26;;;;;;;7.40;1.67;;;;;;;21.78;49.46;100345.41;20667041;28;20046;-77
2022/09/20 06:10:35;;;;;;;6.35;1.92;;;;;;;21.81;49.32;100353.06;20650542;28;20073;-78
2022/09/20 06:20:53;;;;;;;3.42;1.60;;;;;;;21.78;49.89;100355.97;20628764;28;20152;-79
2022/09/20 06:30:56;;;;;;;5.43;1.63;;;;;;;21.84;50.03;100359.91;20666894;28;21343;-75
2022/09/20 06:51:15;;;;;;;10.20;2.13;;;;;;;21.86;48.67;100363.25;20662393;28;20042;-80
2022/09/20 07:01:16;;;;;;;11.07;2.20;;;;;;;21.92;49.52;100368.00;20675265;28;20045;-81
2022/09/20 07:11:16;;;;;;;10.25;1.90;;;;;;;21.95;49.36;100369.56;20669312;28;20077;-81
2022/09/20 07:21:20;;;;;;;7.10;2.13;;;;;;;21.94;49.39;100379.28;20681375;28;20046;-81
2022/09/20 07:31:23;;;;;;;5.13;1.40;;;;;;;21.98;49.44;100387.78;20684464;28;20038;-81
2022/09/20 07:41:25;;;;;;;4.72;1.65;;;;;;;22.00;49.69;100388.50;20694390;28;20898;-81
2022/09/20 07:51:25;;;;;;;6.73;1.63;;;;;;;22.02;49.63;100386.56;20678898;28;20042;-82
2022/09/20 08:01:27;;;;;;;4.40;1.83;;;;;;;22.05;49.54;100395.06;20673212;28;20414;-82
2022/09/20 08:11:29;;;;;;;4.17;2.10;;;;;;;22.08;49.44;100401.88;20667323;28;20038;-82
2022/09/20 08:21:32;;;;;;;5.22;2.13;;;;;;;22.11;49.59;100403.47;20671389;28;20096;-83
2022/09/20 08:31:34;;;;;;;;;;;;;;;22.08;49.62;100404.50;20684245;28;20075;-81
2022/09/20 08:41:43;;;;;;;4.97;2.90;;;;;;;22.15;49.67;100415.41;20692026;28;19933;-81
2022/09/20 08:51:49;;;;;;;4.90;4.00;;;;;;;22.21;49.49;100428.94;20698656;28;20038;-80
2022/09/20 09:01:50;;;;;;;4.82;3.25;;;;;;;22.25;49.16;100418.16;20701848;28;20113;-82
2022/09/20 09:11:52;;;;;;;8.05;5.35;;;;;;;22.28;49.48;100407.38;20678584;28;20046;-82
2022/09/20 09:22:00;;;;;;;;;;;;;;;22.26;49.74;100409.28;20666981;28;20056;-82
2022/09/20 09:32:19;;;;;;;9.60;5.63;;;;;;;22.30;49.82;100403.63;20694536;28;19979;-82
2022/09/20 09:42:27;;;;;;;7.50;6.20;;;;;;;22.31;49.50;100400.00;20692520;28;20030;-81
2022/09/20 09:52:32;;;;;;;8.02;6.07;;;;;;;22.37;49.58;100399.53;20679892;28;20047;-81
2022/09/20 10:03:03;;;;;;;11.00;7.45;;;;;;;22.38;49.40;100387.19;20678570;28;20095;-81
2022/09/20 10:13:46;;;;;;;19.52;7.32;;;;;;;22.47;49.23;100386.44;20677282;28;20520;-80
2022/09/20 10:23:55;;;;;;;10.20;7.55;;;;;;;22.57;49.15;100389.16;20664362;28;20042;-85
2022/09/20 10:34:19;;;;;;;9.40;7.55;;;;;;;22.59;49.27;100387.19;20691608;28;20042;-87
2022/09/20 10:45:05;;;;;;;9.65;8.25;;;;;;;22.65;49.06;100377.94;20662462;28;20509;-81
2022/09/20 10:55:20;;;;;;;11.55;9.05;;;;;;;22.74;49.47;100377.19;20694473;28;20132;-82
2022/09/20 11:05:35;;;;;;;12.48;10.02;;;;;;;22.77;50.28;100371.63;20684818;28;20041;-82
2022/09/20 11:16:01;;;;;;;13.48;9.77;;;;;;;22.79;49.44;100369.69;20675278;28;20046;-82
2022/09/20 11:26:38;;;;;;;5.38;2.90;;;;;;;22.29;41.33;100370.28;20658303;28;20064;-83
2022/09/20 11:36:48;;;;;;;3.03;1.85;;;;;;;22.15;41.01;100362.69;20614200;28;20046;-79
2022/09/20 11:47:22;;;;;;;9.50;3.53;;;;;;;22.34;44.69;100348.81;20636129;28;20042;-81
2022/09/20 11:57:23;;;;;;;6.95;2.90;;;;;;;22.57;45.79;100338.16;20645137;28;20477;-78
2022/09/20 12:07:26;;;;;;;8.50;3.35;;;;;;;22.70;45.86;100328.22;20673991;28;20038;-81
2022/09/20 12:17:45;;;;;;;3.15;2.80;;;;;;;22.82;45.89;100319.25;20675348;28;20081;-81
2022/09/20 12:27:49;;;;;;;4.05;2.60;;;;;;;22.95;45.74;100320.84;20706150;28;20037;-81
2022/09/20 12:37:49;;;;;;;4.10;2.60;;;;;;;22.96;45.18;100319.88;20699078;28;20049;-79
2022/09/20 12:47:54;;;;;;;5.65;2.20;;;;;;;23.07;45.01;100321.59;20696796;28;20037;-80
2022/09/20 12:57:57;;;;;;;1.98;1.77;;;;;;;23.16;44.80;100318.19;20708052;28;20284;-79
2022/09/20 13:08:26;;;;;;;3.00;1.90;;;;;;;23.14;44.65;100305.09;20692536;28;20034;-79
2022/09/20 13:18:28;;;;;;;4.45;1.90;;;;;;;23.15;44.46;100304.13;20694489;28;20041;-81
2022/09/20 13:28:57;;;;;;;3.80;1.10;;;;;;;22.88;39.44;100319.72;20700816;28;20042;-79
2022/09/20 13:38:58;;;;;;;1.17;0.90;;;;;;;22.49;37.83;100326.44;20678813;28;20398;-80
2022/09/20 13:49:19;;;;;;;20.63;3.28;;;;;;;22.68;40.24;100322.28;20650342;28;20060;-78
2022/09/20 13:59:21;;;;;;;13.52;3.22;;;;;;;22.77;41.83;100325.94;20656239;28;20108;-78
2022/09/20 14:09:31;;;;;;;13.33;2.17;;;;;;;22.85;41.39;100324.31;20663985;28;20050;-78
2022/09/20 14:19:37;;;;;;;4.47;1.42;;;;;;;22.82;37.67;100321.09;20658769;28;20052;-78
2022/09/20 14:29:40;;;;;;;1.90;0.82;;;;;;;22.74;37.03;100332.31;20642545;28;20052;-77
2022/09/20 14:39:48;;;;;;;1.13;0.50;;;;;;;22.15;33.76;100344.22;20638934;28;20038;-77
2022/09/20 14:49:48;;;;;;;1.10;0.70;;;;;;;22.47;37.58;100349.50;20643844;28;20054;-77
2022/09/20 14:59:58;;;;;;;1.77;1.10;;;;;;;22.58;40.19;100348.56;20685226;28;20440;-76
2022/09/20 15:09:59;;;;;;;6.85;1.35;;;;;;;22.59;41.80;100360.00;20650518;28;20133;-76
2022/09/20 15:19:59;;;;;;;5.43;1.05;;;;;;;22.60;41.67;100359.03;20646067;28;20050;-75
2022/09/20 15:30:00;;;;;;;3.47;1.20;;;;;;;22.57;42.45;100380.38;20612047;28;20489;-73
2022/09/20 15:40:01;;;;;;;3.88;1.30;;;;;;;22.53;42.44;100393.84;20601749;28;20038;-74
2022/09/20 15:50:05;;;;;;;16.97;2.87;;;;;;;22.49;43.57;100404.78;20613424;28;20038;-76
2022/09/20 16:00:07;;;;;;;7.38;2.35;;;;;;;22.45;43.69;100404.19;20618153;28;20108;-75
2022/09/20 16:10:08;;;;;;;6.25;3.38;;;;;;;22.43;44.31;100407.94;20564689;28;20047;-77
2022/09/20 16:20:08;;;;;;;30.58;9.65;;;;;;;22.44;44.79;100415.69;20603049;28;20065;-78
2022/09/20 16:30:09;;;;;;;16.00;5.38;;;;;;;22.06;41.76;100411.75;20623113;28;20043;-79
2022/09/20 16:40:13;;;;;;;20.33;7.18;;;;;;;22.23;43.56;100415.66;20553966;28;20080;-76
2022/09/20 16:50:13;;;;;;;19.95;6.82;;;;;;;22.25;44.56;100410.22;20561557;28;20157;-72
2022/09/20 17:00:15;;;;;;;17.15;6.65;;;;;;;22.22;45.09;100414.78;20564775;28;20413;-73
2022/09/20 17:10:16;;;;;;;10.43;5.80;;;;;;;22.23;45.40;100423.56;20555379;28;20532;-72
2022/09/20 17:20:16;;;;;;;16.42;5.97;;;;;;;22.22;46.15;100430.63;20543830;28;20169;-73
2022/09/20 17:30:17;;;;;;;17.95;5.43;;;;;;;22.26;46.11;100428.56;20524751;28;20047;-72
2022/09/20 17:40:17;;;;;;;12.70;5.18;;;;;;;22.27;46.02;100438.16;20612434;28;20049;-72
2022/09/20 17:50:17;;;;;;;12.15;5.43;;;;;;;22.27;48.22;100453.16;20628661;28;20053;-72
2022/09/20 18:00:18;;;;;;;9.00;4.43;;;;;;;22.30;48.52;100464.31;20559167;28;20057;-75
2022/09/20 18:10:18;;;;;;;11.30;4.45;;;;;;;22.29;48.57;100467.91;20550175;28;20034;-72
2022/09/20 18:20:18;;;;;;;17.23;4.80;;;;;;;22.27;49.07;100483.00;20545531;28;20122;-77
2022/09/20 18:30:20;;;;;;;8.82;4.20;;;;;;;22.29;48.18;100490.78;20553327;28;20038;-73
2022/09/20 18:40:22;;;;;;;12.35;4.28;;;;;;;22.30;49.06;100495.97;20561337;28;20054;-80
2022/09/20 18:50:25;;;;;;;23.50;5.03;;;;;;;22.30;49.84;100500.38;20558211;28;20089;-74
2022/09/20 19:00:26;;;;;;;15.77;4.13;;;;;;;22.27;49.34;100509.38;20575686;28;20070;-78
2022/09/20 19:10:50;;;;;;;16.08;5.00;;;;;;;22.26;49.36;100515.59;20579810;28;20499;-76
2022/09/20 19:21:12;;;;;;;11.20;4.25;;;;;;;22.26;48.72;100509.50;20587327;28;20035;-78
2022/09/20 19:31:24;;;;;;;6.25;3.95;;;;;;;22.22;48.81;100509.75;20595424;28;20046;-75
2022/09/20 19:41:30;;;;;;;5.63;3.37;;;;;;;22.21;49.21;100520.41;20610516;28;20125;-75
2022/09/20 19:51:35;;;;;;;6.93;3.42;;;;;;;22.18;49.12;100524.16;20609474;28;20709;-74
2022/09/20 20:01:36;;;;;;;6.25;3.42;;;;;;;22.17;49.53;100530.38;20610100;28;20049;-74
2022/09/20 20:11:42;;;;;;;7.53;3.35;;;;;;;22.17;49.15;100538.28;20615725;28;20042;-74
2022/09/20 20:21:51;;;;;;;7.55;3.30;;;;;;;22.17;49.25;100553.28;20600180;28;20292;-74
2022/09/20 20:31:52;;;;;;;9.38;3.20;;;;;;;22.16;49.01;100554.25;20607908;28;20042;-74
2022/09/20 20:41:52;;;;;;;5.65;3.05;;;;;;;22.16;49.39;100565.63;20598276;28;20034;-74
2022/09/20 20:51:55;;;;;;;5.97;2.80;;;;;;;22.15;49.65;100573.66;20584386;28;20089;-74
2022/09/20 21:01:55;;;;;;;5.40;2.80;;;;;;;22.12;49.55;100582.66;20612839;28;20460;-76
2022/09/20 21:11:55;;;;;;;4.88;2.50;;;;;;;22.10;49.40;100581.94;20650340;28;20038;-74
2022/09/20 21:21:56;;;;;;;4.72;2.55;;;;;;;22.12;49.42;100592.34;20630717;28;20035;-74
2022/09/20 21:31:56;;;;;;;5.85;2.75;;;;;;;22.11;49.78;100595.97;20651668;28;20088;-75
2022/09/20 21:41:57;;;;;;;6.07;2.67;;;;;;;22.09;49.45;100601.34;20639731;28;20042;-75
2022/09/20 21:51:57;;;;;;;4.75;2.42;;;;;;;22.09;49.87;100603.97;20570205;28;20042;-76
2022/09/20 22:01:58;;;;;;;2.75;2.00;;;;;;;22.05;49.51;100605.19;20575852;28;20480;-75
2022/09/20 22:11:59;;;;;;;4.32;2.50;;;;;;;22.03;49.97;100615.88;20567599;28;20441;-74
2022/09/20 22:21:59;;;;;;;4.45;2.30;;;;;;;22.04;49.97;100611.41;20564573;28;20383;-74
2022/09/20 22:32:00;;;;;;;3.60;2.30;;;;;;;22.02;49.70;100618.59;20568708;28;20133;-74
2022/09/20 22:42:00;;;;;;;4.13;2.65;;;;;;;22.02;49.59;100616.81;20558170;28;20046;-75
2022/09/20 22:52:04;;;;;;;3.80;2.17;;;;;;;22.01;49.89;100617.78;20562449;28;20039;-75
2022/09/20 23:02:05;;;;;;;2.95;2.08;;;;;;;21.97;49.68;100613.69;20563586;28;20062;-75
2022/09/20 23:12:05;;;;;;;3.58;2.00;;;;;;;21.97;49.74;100613.69;20572276;28;20046;-75
2022/09/20 23:22:06;;;;;;;4.10;1.85;;;;;;;21.95;49.94;100612.97;20594408;28;20089;-74
2022/09/20 23:32:06;;;;;;;2.60;1.83;;;;;;;21.95;49.84;100614.75;20581317;28;20137;-75
2022/09/20 23:42:07;;;;;;;3.03;2.13;;;;;;;21.91;49.85;100625.56;20573397;28;20046;-75
2022/09/20 23:52:07;;;;;;;2.78;1.65;;;;;;;21.93;49.99;100630.69;20568683;28;20053;-77
